Mancos, CO

4:10 PM MST on November 28, 2014 (GMT -0700)
Four Corners Regional | Change Station
CLOSE
Current Station
Airport
Location: Farmington,
Elevation: 5502 ft
Nearby Weather Stations
Active Advisory: Special Weather Statement

Elev 5502 ft 36.74 °N, 108.23 °W | Updated 17 minutes ago

Clear
Clear
61 °F
Feels Like 61 °F
N
0
Wind Variable Wind from North

Today
High -- | Low -- °F
--% Chance of Precip.
Yesterday
High -- | Low -- °F
Precip. -- in
7:06 AM 4:56 PM
Waxing Crescent, 45% visible
Pressure 30.05 in
Visibility 10.0 miles
Clouds Clear
Dew Point 14 °F
Humidity 16%
Rainfall 0.00 in
Snow Depth Not available.
UV 1 out of 12
Pollen .30 out of 12
Air Quality Not available.
Flu Activity Not available.
METAR KFMN 282253Z 00000KT 10SM CLR 16/M10 A3008 RMK AO2 SLP174 T01611100

More Conditions Fewer Conditions

Pressure 30.05 in
Visibility 10.0 miles
Clouds Clear
Dew Point 14 °F
Humidity 16%
Rainfall 0.00 in
Snow Depth Not available.
UV 1 out of 12
Pollen .30 out of 12
Air Quality Not available.
Flu Activity Not available.
METAR KFMN 282253Z 00000KT 10SM CLR 16/M10 A3008 RMK AO2 SLP174 T01611100

More Conditions Fewer Conditions

10-Day Weather Forecast

Almanac

Astronomy

Nov. 28, 2014 Rise Set
Actual Time
Civil Twilight
Nautical Twilight
Astronomical Twilight
Moon
Length of Visible Light
Length of Day
Tomorrow will be .
, % of the Moon is Illuminated

Today's Extremes

State Highs State Lows

Community

WunderPhotos

Upload Photos

1,774,331 photos uploaded!

WunderBlogs® & News

Nearby

Air Quality

  Air Quality AQ Index Pollutant
Not available.

Snow Depth

Station Depth Elevation

Earthquake Activity

City Distance Mag. Time & Date
Minimum magnitude displayed is 2.5.

Coastal Water Temperatures

Place Temperature

Nearby Weather Stations